sensor_id;sensor_type;location;lat;lon;timestamp;P1;durP1;ratioP1;P2;durP2;ratioP2
18647;SDS011;9453;50.294;18.644;2022-08-04T04:08:55;18.23;;;11.70;;
18647;SDS011;9453;50.294;18.644;2022-08-04T04:14:48;14.20;;;10.40;;
18647;SDS011;9453;50.294;18.644;2022-08-04T04:17:52;17.60;;;11.57;;
18647;SDS011;9453;50.294;18.644;2022-08-04T04:23:32;17.73;;;11.57;;
18647;SDS011;9453;50.294;18.644;2022-08-04T04:26:19;17.15;;;12.07;;
18647;SDS011;9453;50.294;18.644;2022-08-04T04:32:21;13.77;;;10.55;;
18647;SDS011;9453;50.294;18.644;2022-08-04T04:34:57;15.95;;;11.63;;
18647;SDS011;9453;50.294;18.644;2022-08-04T04:37:45;15.90;;;11.38;;
18647;SDS011;9453;50.294;18.644;2022-08-04T04:40:30;18.85;;;13.27;;
18647;SDS011;9453;50.294;18.644;2022-08-04T04:43:10;17.17;;;11.82;;
18647;SDS011;9453;50.294;18.644;2022-08-04T04:45:46;16.27;;;11.32;;
18647;SDS011;9453;50.294;18.644;2022-08-04T04:48:23;15.38;;;10.98;;
18647;SDS011;9453;50.294;18.644;2022-08-04T04:51:06;17.92;;;12.05;;
18647;SDS011;9453;50.294;18.644;2022-08-04T04:53:44;15.18;;;11.07;;
18647;SDS011;9453;50.294;18.644;2022-08-04T04:56:16;16.05;;;11.50;;
18647;SDS011;9453;50.294;18.644;2022-08-04T04:58:51;16.20;;;11.32;;
18647;SDS011;9453;50.294;18.644;2022-08-04T05:01:29;14.73;;;11.15;;
18647;SDS011;9453;50.294;18.644;2022-08-04T05:04:26;17.33;;;11.82;;
18647;SDS011;9453;50.294;18.644;2022-08-04T05:07:10;15.93;;;10.85;;
18647;SDS011;9453;50.294;18.644;2022-08-04T05:10:02;16.73;;;12.05;;
18647;SDS011;9453;50.294;18.644;2022-08-04T05:12:41;14.88;;;10.73;;
18647;SDS011;9453;50.294;18.644;2022-08-04T05:15:18;19.63;;;13.55;;
18647;SDS011;9453;50.294;18.644;2022-08-04T05:17:51;19.17;;;13.25;;
18647;SDS011;9453;50.294;18.644;2022-08-04T05:20:21;19.05;;;13.68;;
18647;SDS011;9453;50.294;18.644;2022-08-04T05:22:53;16.60;;;12.55;;
18647;SDS011;9453;50.294;18.644;2022-08-04T05:25:26;13.45;;;10.77;;
18647;SDS011;9453;50.294;18.644;2022-08-04T05:28:01;17.30;;;11.85;;
18647;SDS011;9453;50.294;18.644;2022-08-04T05:30:31;19.95;;;13.32;;
18647;SDS011;9453;50.294;18.644;2022-08-04T05:33:03;27.55;;;18.05;;
18647;SDS011;9453;50.294;18.644;2022-08-04T05:35:35;20.42;;;14.40;;
18647;SDS011;9453;50.294;18.644;2022-08-04T05:38:09;22.17;;;14.68;;
18647;SDS011;9453;50.294;18.644;2022-08-04T05:40:41;22.75;;;15.60;;
18647;SDS011;9453;50.294;18.644;2022-08-04T05:43:09;18.30;;;13.20;;
18647;SDS011;9453;50.294;18.644;2022-08-04T05:45:37;17.60;;;12.77;;
18647;SDS011;9453;50.294;18.644;2022-08-04T05:48:07;20.63;;;13.20;;
18647;SDS011;9453;50.294;18.644;2022-08-04T05:50:35;21.25;;;14.13;;
18647;SDS011;9453;50.294;18.644;2022-08-04T05:53:04;27.20;;;15.57;;
18647;SDS011;9453;50.294;18.644;2022-08-04T05:55:31;20.13;;;14.63;;
18647;SDS011;9453;50.294;18.644;2022-08-04T05:58:01;23.58;;;14.90;;
18647;SDS011;9453;50.294;18.644;2022-08-04T06:00:28;22.73;;;14.00;;
18647;SDS011;9453;50.294;18.644;2022-08-04T06:02:57;18.50;;;12.95;;
18647;SDS011;9453;50.294;18.644;2022-08-04T06:05:25;17.25;;;12.65;;
18647;SDS011;9453;50.294;18.644;2022-08-04T06:07:54;13.60;;;10.60;;
18647;SDS011;9453;50.294;18.644;2022-08-04T06:10:21;14.70;;;10.20;;
18647;SDS011;9453;50.294;18.644;2022-08-04T06:12:51;15.65;;;10.55;;
18647;SDS011;9453;50.294;18.644;2022-08-04T06:15:21;13.52;;;9.57;;
18647;SDS011;9453;50.294;18.644;2022-08-04T06:17:52;13.85;;;10.63;;
18647;SDS011;9453;50.294;18.644;2022-08-04T06:20:22;13.73;;;9.35;;
18647;SDS011;9453;50.294;18.644;2022-08-04T06:22:54;17.92;;;12.18;;
18647;SDS011;9453;50.294;18.644;2022-08-04T06:25:25;14.38;;;10.43;;
18647;SDS011;9453;50.294;18.644;2022-08-04T06:27:56;15.75;;;9.38;;
18647;SDS011;9453;50.294;18.644;2022-08-04T06:30:26;15.98;;;10.50;;
18647;SDS011;9453;50.294;18.644;2022-08-04T06:32:56;13.15;;;9.88;;
18647;SDS011;9453;50.294;18.644;2022-08-04T06:35:27;14.35;;;8.88;;
18647;SDS011;9453;50.294;18.644;2022-08-04T06:37:55;12.13;;;8.70;;
18647;SDS011;9453;50.294;18.644;2022-08-04T06:40:23;12.52;;;8.20;;
18647;SDS011;9453;50.294;18.644;2022-08-04T06:42:52;18.67;;;12.35;;
18647;SDS011;9453;50.294;18.644;2022-08-04T06:45:21;11.95;;;9.63;;
18647;SDS011;9453;50.294;18.644;2022-08-04T06:47:51;13.05;;;9.55;;
18647;SDS011;9453;50.294;18.644;2022-08-04T06:50:21;16.30;;;10.95;;
18647;SDS011;9453;50.294;18.644;2022-08-04T06:52:49;12.77;;;8.82;;
18647;SDS011;9453;50.294;18.644;2022-08-04T06:55:16;12.32;;;8.30;;
18647;SDS011;9453;50.294;18.644;2022-08-04T06:57:43;12.00;;;8.13;;
18647;SDS011;9453;50.294;18.644;2022-08-04T07:00:12;11.52;;;8.88;;
18647;SDS011;9453;50.294;18.644;2022-08-04T07:02:43;12.85;;;9.18;;
18647;SDS011;9453;50.294;18.644;2022-08-04T07:05:14;14.50;;;8.85;;
18647;SDS011;9453;50.294;18.644;2022-08-04T07:07:43;11.68;;;7.97;;
18647;SDS011;9453;50.294;18.644;2022-08-04T07:10:11;10.77;;;8.00;;
18647;SDS011;9453;50.294;18.644;2022-08-04T07:12:39;12.07;;;8.10;;
18647;SDS011;9453;50.294;18.644;2022-08-04T07:15:07;10.25;;;8.00;;
18647;SDS011;9453;50.294;18.644;2022-08-04T07:17:36;10.10;;;7.15;;
18647;SDS011;9453;50.294;18.644;2022-08-04T07:20:03;14.68;;;8.88;;
18647;SDS011;9453;50.294;18.644;2022-08-04T07:22:33;10.93;;;7.97;;
18647;SDS011;9453;50.294;18.644;2022-08-04T07:25:01;11.43;;;8.02;;
18647;SDS011;9453;50.294;18.644;2022-08-04T07:27:33;11.05;;;7.40;;
18647;SDS011;9453;50.294;18.644;2022-08-04T07:30:00;8.90;;;6.85;;
18647;SDS011;9453;50.294;18.644;2022-08-04T07:32:29;9.50;;;6.90;;
18647;SDS011;9453;50.294;18.644;2022-08-04T07:34:57;11.98;;;6.95;;
18647;SDS011;9453;50.294;18.644;2022-08-04T07:37:24;8.18;;;6.25;;
18647;SDS011;9453;50.294;18.644;2022-08-04T07:39:53;7.68;;;5.85;;
18647;SDS011;9453;50.294;18.644;2022-08-04T07:42:20;6.90;;;5.85;;
18647;SDS011;9453;50.294;18.644;2022-08-04T07:44:47;8.63;;;5.72;;
18647;SDS011;9453;50.294;18.644;2022-08-04T07:47:14;7.10;;;5.95;;
18647;SDS011;9453;50.294;18.644;2022-08-04T07:49:41;11.73;;;6.75;;
18647;SDS011;9453;50.294;18.644;2022-08-04T07:52:08;9.68;;;6.03;;
18647;SDS011;9453;50.294;18.644;2022-08-04T07:54:36;6.32;;;5.32;;
18647;SDS011;9453;50.294;18.644;2022-08-04T07:57:07;9.02;;;5.20;;
18647;SDS011;9453;50.294;18.644;2022-08-04T07:59:34;6.35;;;5.40;;
18647;SDS011;9453;50.294;18.644;2022-08-04T08:02:02;6.72;;;5.32;;
18647;SDS011;9453;50.294;18.644;2022-08-04T08:04:29;6.75;;;5.50;;
18647;SDS011;9453;50.294;18.644;2022-08-04T08:06:57;9.10;;;4.95;;
18647;SDS011;9453;50.294;18.644;2022-08-04T08:09:24;9.68;;;5.90;;
18647;SDS011;9453;50.294;18.644;2022-08-04T08:11:52;6.90;;;5.70;;
18647;SDS011;9453;50.294;18.644;2022-08-04T08:14:21;5.53;;;4.93;;
18647;SDS011;9453;50.294;18.644;2022-08-04T08:16:48;7.50;;;5.00;;
18647;SDS011;9453;50.294;18.644;2022-08-04T08:19:15;8.70;;;6.05;;
18647;SDS011;9453;50.294;18.644;2022-08-04T08:21:45;7.50;;;5.70;;
18647;SDS011;9453;50.294;18.644;2022-08-04T08:24:13;6.93;;;5.53;;
18647;SDS011;9453;50.294;18.644;2022-08-04T08:26:40;7.32;;;6.18;;
18647;SDS011;9453;50.294;18.644;2022-08-04T08:29:07;6.93;;;4.95;;
18647;SDS011;9453;50.294;18.644;2022-08-04T08:31:36;5.68;;;4.90;;
18647;SDS011;9453;50.294;18.644;2022-08-04T08:34:03;8.80;;;6.40;;
18647;SDS011;9453;50.294;18.644;2022-08-04T08:36:33;7.45;;;5.82;;
18647;SDS011;9453;50.294;18.644;2022-08-04T08:39:04;6.72;;;5.45;;
18647;SDS011;9453;50.294;18.644;2022-08-04T08:41:43;8.82;;;6.00;;
18647;SDS011;9453;50.294;18.644;2022-08-04T08:47:50;8.93;;;6.43;;
18647;SDS011;9453;50.294;18.644;2022-08-04T08:50:59;8.05;;;5.82;;
18647;SDS011;9453;50.294;18.644;2022-08-04T08:53:42;11.50;;;6.03;;
18647;SDS011;9453;50.294;18.644;2022-08-04T08:56:30;6.15;;;5.13;;
18647;SDS011;9453;50.294;18.644;2022-08-04T08:59:14;7.95;;;5.78;;
18647;SDS011;9453;50.294;18.644;2022-08-04T09:01:57;7.07;;;5.57;;
18647;SDS011;9453;50.294;18.644;2022-08-04T09:07:51;7.20;;;5.13;;
18647;SDS011;9453;50.294;18.644;2022-08-04T09:10:28;6.53;;;5.00;;
18647;SDS011;9453;50.294;18.644;2022-08-04T09:13:05;6.40;;;5.45;;
18647;SDS011;9453;50.294;18.644;2022-08-04T09:15:38;8.75;;;5.25;;
18647;SDS011;9453;50.294;18.644;2022-08-04T09:18:17;5.22;;;4.25;;
18647;SDS011;9453;50.294;18.644;2022-08-04T09:20:50;7.78;;;5.60;;
18647;SDS011;9453;50.294;18.644;2022-08-04T09:23:27;7.63;;;5.30;;
18647;SDS011;9453;50.294;18.644;2022-08-04T09:26:03;7.10;;;5.43;;
18647;SDS011;9453;50.294;18.644;2022-08-04T09:28:37;6.10;;;5.10;;
18647;SDS011;9453;50.294;18.644;2022-08-04T09:31:20;6.32;;;5.50;;
18647;SDS011;9453;50.294;18.644;2022-08-04T09:33:51;6.65;;;5.55;;
18647;SDS011;9453;50.294;18.644;2022-08-04T09:36:31;6.85;;;6.15;;
18647;SDS011;9453;50.294;18.644;2022-08-04T09:39:05;8.38;;;6.03;;
18647;SDS011;9453;50.294;18.644;2022-08-04T09:41:40;6.95;;;5.28;;
18647;SDS011;9453;50.294;18.644;2022-08-04T09:44:16;6.93;;;5.30;;
18647;SDS011;9453;50.294;18.644;2022-08-04T09:46:52;8.48;;;5.38;;
18647;SDS011;9453;50.294;18.644;2022-08-04T09:49:27;5.35;;;4.85;;
18647;SDS011;9453;50.294;18.644;2022-08-04T09:52:05;5.57;;;4.88;;
18647;SDS011;9453;50.294;18.644;2022-08-04T09:54:42;6.97;;;4.55;;
18647;SDS011;9453;50.294;18.644;2022-08-04T09:57:15;8.20;;;4.95;;
18647;SDS011;9453;50.294;18.644;2022-08-04T10:00:00;8.20;;;5.10;;
18647;SDS011;9453;50.294;18.644;2022-08-04T10:02:31;5.30;;;4.78;;
18647;SDS011;9453;50.294;18.644;2022-08-04T10:05:04;9.15;;;4.65;;
18647;SDS011;9453;50.294;18.644;2022-08-04T10:07:43;6.00;;;4.15;;
18647;SDS011;9453;50.294;18.644;2022-08-04T10:10:19;6.53;;;4.80;;
18647;SDS011;9453;50.294;18.644;2022-08-04T10:13:06;8.20;;;4.70;;
18647;SDS011;9453;50.294;18.644;2022-08-04T10:15:45;4.90;;;4.22;;
18647;SDS011;9453;50.294;18.644;2022-08-04T10:18:22;4.57;;;4.10;;
18647;SDS011;9453;50.294;18.644;2022-08-04T10:21:03;7.28;;;4.30;;
18647;SDS011;9453;50.294;18.644;2022-08-04T10:23:41;3.92;;;3.53;;
18647;SDS011;9453;50.294;18.644;2022-08-04T10:26:30;7.38;;;4.53;;
18647;SDS011;9453;50.294;18.644;2022-08-04T10:29:03;10.65;;;4.10;;
18647;SDS011;9453;50.294;18.644;2022-08-04T10:31:38;4.45;;;4.00;;
18647;SDS011;9453;50.294;18.644;2022-08-04T10:34:11;5.55;;;4.10;;
18647;SDS011;9453;50.294;18.644;2022-08-04T10:36:55;4.18;;;3.42;;
18647;SDS011;9453;50.294;18.644;2022-08-04T10:39:31;4.57;;;3.60;;
18647;SDS011;9453;50.294;18.644;2022-08-04T10:42:05;4.20;;;3.80;;
18647;SDS011;9453;50.294;18.644;2022-08-04T10:44:39;7.80;;;3.80;;
18647;SDS011;9453;50.294;18.644;2022-08-04T10:47:19;5.90;;;3.78;;
18647;SDS011;9453;50.294;18.644;2022-08-04T10:49:53;6.75;;;3.78;;
18647;SDS011;9453;50.294;18.644;2022-08-04T10:52:26;5.10;;;4.13;;
18647;SDS011;9453;50.294;18.644;2022-08-04T10:55:02;7.18;;;3.80;;
18647;SDS011;9453;50.294;18.644;2022-08-04T10:57:35;5.95;;;3.80;;
18647;SDS011;9453;50.294;18.644;2022-08-04T11:00:06;4.63;;;4.00;;
18647;SDS011;9453;50.294;18.644;2022-08-04T11:02:36;3.92;;;3.53;;
18647;SDS011;9453;50.294;18.644;2022-08-04T11:05:13;4.32;;;3.67;;
18647;SDS011;9453;50.294;18.644;2022-08-04T11:07:48;3.55;;;3.22;;
18647;SDS011;9453;50.294;18.644;2022-08-04T11:10:20;4.80;;;3.50;;
18647;SDS011;9453;50.294;18.644;2022-08-04T11:12:51;5.38;;;3.80;;
18647;SDS011;9453;50.294;18.644;2022-08-04T11:15:22;5.03;;;4.13;;
18647;SDS011;9453;50.294;18.644;2022-08-04T11:17:54;5.55;;;4.22;;
18647;SDS011;9453;50.294;18.644;2022-08-04T11:20:26;5.80;;;4.38;;
18647;SDS011;9453;50.294;18.644;2022-08-04T11:22:58;7.85;;;4.00;;
18647;SDS011;9453;50.294;18.644;2022-08-04T11:25:34;5.60;;;4.00;;
18647;SDS011;9453;50.294;18.644;2022-08-04T11:28:08;3.92;;;3.45;;
18647;SDS011;9453;50.294;18.644;2022-08-04T11:30:41;4.80;;;3.40;;
18647;SDS011;9453;50.294;18.644;2022-08-04T11:33:19;4.20;;;3.25;;
18647;SDS011;9453;50.294;18.644;2022-08-04T11:35:54;7.18;;;3.50;;
18647;SDS011;9453;50.294;18.644;2022-08-04T11:38:30;6.55;;;3.92;;
18647;SDS011;9453;50.294;18.644;2022-08-04T11:41:03;4.47;;;3.78;;
18647;SDS011;9453;50.294;18.644;2022-08-04T11:43:35;6.05;;;3.50;;
18647;SDS011;9453;50.294;18.644;2022-08-04T11:46:07;3.45;;;3.15;;
18647;SDS011;9453;50.294;18.644;2022-08-04T11:48:40;4.05;;;3.65;;
18647;SDS011;9453;50.294;18.644;2022-08-04T11:51:15;5.95;;;4.43;;
18647;SDS011;9453;50.294;18.644;2022-08-04T11:53:43;4.60;;;4.00;;
18647;SDS011;9453;50.294;18.644;2022-08-04T11:56:13;5.65;;;3.95;;
18647;SDS011;9453;50.294;18.644;2022-08-04T11:58:41;5.43;;;3.72;;
18647;SDS011;9453;50.294;18.644;2022-08-04T12:01:10;4.70;;;3.80;;
18647;SDS011;9453;50.294;18.644;2022-08-04T12:03:45;3.72;;;3.40;;
18647;SDS011;9453;50.294;18.644;2022-08-04T12:06:19;3.33;;;3.03;;
18647;SDS011;9453;50.294;18.644;2022-08-04T12:08:57;7.20;;;3.50;;
18647;SDS011;9453;50.294;18.644;2022-08-04T12:11:39;6.00;;;3.95;;
18647;SDS011;9453;50.294;18.644;2022-08-04T12:14:21;5.20;;;4.07;;
18647;SDS011;9453;50.294;18.644;2022-08-04T12:16:57;5.20;;;4.40;;
18647;SDS011;9453;50.294;18.644;2022-08-04T12:19:28;5.07;;;3.92;;
18647;SDS011;9453;50.294;18.644;2022-08-04T12:21:58;5.20;;;3.92;;
18647;SDS011;9453;50.294;18.644;2022-08-04T12:24:30;5.85;;;4.05;;
18647;SDS011;9453;50.294;18.644;2022-08-04T12:27:03;5.20;;;4.32;;
18647;SDS011;9453;50.294;18.644;2022-08-04T12:29:36;4.90;;;3.90;;
18647;SDS011;9453;50.294;18.644;2022-08-04T12:32:10;4.28;;;3.67;;
18647;SDS011;9453;50.294;18.644;2022-08-04T12:34:45;3.75;;;3.45;;
18647;SDS011;9453;50.294;18.644;2022-08-04T12:37:22;4.68;;;3.80;;
18647;SDS011;9453;50.294;18.644;2022-08-04T12:40:00;3.83;;;3.40;;
18647;SDS011;9453;50.294;18.644;2022-08-04T12:42:35;5.50;;;3.90;;
18647;SDS011;9453;50.294;18.644;2022-08-04T12:45:09;4.85;;;3.63;;
18647;SDS011;9453;50.294;18.644;2022-08-04T12:47:37;8.25;;;3.97;;
18647;SDS011;9453;50.294;18.644;2022-08-04T12:50:06;4.22;;;3.15;;
18647;SDS011;9453;50.294;18.644;2022-08-04T12:52:40;3.05;;;2.83;;
18647;SDS011;9453;50.294;18.644;2022-08-04T12:55:08;5.45;;;3.40;;
18647;SDS011;9453;50.294;18.644;2022-08-04T12:57:37;4.47;;;2.90;;
18647;SDS011;9453;50.294;18.644;2022-08-04T13:00:07;4.05;;;3.30;;
18647;SDS011;9453;50.294;18.644;2022-08-04T13:02:36;5.18;;;3.50;;
18647;SDS011;9453;50.294;18.644;2022-08-04T13:05:06;6.55;;;3.03;;
18647;SDS011;9453;50.294;18.644;2022-08-04T13:07:35;4.03;;;3.22;;
18647;SDS011;9453;50.294;18.644;2022-08-04T13:10:05;4.50;;;3.90;;
18647;SDS011;9453;50.294;18.644;2022-08-04T13:12:39;3.25;;;2.95;;
18647;SDS011;9453;50.294;18.644;2022-08-04T13:15:10;3.28;;;2.92;;
18647;SDS011;9453;50.294;18.644;2022-08-04T13:17:45;3.47;;;3.17;;
18647;SDS011;9453;50.294;18.644;2022-08-04T13:20:19;5.47;;;3.63;;
18647;SDS011;9453;50.294;18.644;2022-08-04T13:22:51;5.18;;;3.00;;
18647;SDS011;9453;50.294;18.644;2022-08-04T13:25:34;5.13;;;3.55;;
18647;SDS011;9453;50.294;18.644;2022-08-04T13:28:05;7.03;;;3.40;;
18647;SDS011;9453;50.294;18.644;2022-08-04T13:30:38;4.13;;;3.15;;
18647;SDS011;9453;50.294;18.644;2022-08-04T13:33:06;5.65;;;3.08;;
18647;SDS011;9453;50.294;18.644;2022-08-04T13:35:33;5.68;;;3.42;;
18647;SDS011;9453;50.294;18.644;2022-08-04T13:38:02;3.55;;;2.75;;
18647;SDS011;9453;50.294;18.644;2022-08-04T13:40:33;4.10;;;3.63;;
18647;SDS011;9453;50.294;18.644;2022-08-04T13:43:02;4.88;;;3.53;;
18647;SDS011;9453;50.294;18.644;2022-08-04T13:45:31;3.40;;;2.85;;
18647;SDS011;9453;50.294;18.644;2022-08-04T13:47:59;3.38;;;2.95;;
18647;SDS011;9453;50.294;18.644;2022-08-04T13:50:28;5.45;;;3.00;;
18647;SDS011;9453;50.294;18.644;2022-08-04T13:52:58;3.05;;;2.75;;
18647;SDS011;9453;50.294;18.644;2022-08-04T13:55:27;6.47;;;3.20;;
18647;SDS011;9453;50.294;18.644;2022-08-04T13:58:00;3.28;;;2.97;;
18647;SDS011;9453;50.294;18.644;2022-08-04T14:00:39;3.55;;;3.22;;
18647;SDS011;9453;50.294;18.644;2022-08-04T14:03:09;3.55;;;2.92;;
18647;SDS011;9453;50.294;18.644;2022-08-04T14:05:42;3.50;;;2.85;;
18647;SDS011;9453;50.294;18.644;2022-08-04T14:08:11;3.97;;;3.22;;
18647;SDS011;9453;50.294;18.644;2022-08-04T14:10:51;3.22;;;2.92;;
18647;SDS011;9453;50.294;18.644;2022-08-04T14:13:27;4.38;;;3.13;;
18647;SDS011;9453;50.294;18.644;2022-08-04T14:15:57;3.13;;;2.63;;
18647;SDS011;9453;50.294;18.644;2022-08-04T14:18:24;5.38;;;3.08;;
18647;SDS011;9453;50.294;18.644;2022-08-04T14:23:43;4.70;;;2.88;;
18647;SDS011;9453;50.294;18.644;2022-08-04T14:26:15;3.08;;;2.60;;
18647;SDS011;9453;50.294;18.644;2022-08-04T14:28:47;3.38;;;2.90;;
18647;SDS011;9453;50.294;18.644;2022-08-04T14:31:17;3.10;;;2.80;;
18647;SDS011;9453;50.294;18.644;2022-08-04T14:33:45;3.20;;;2.90;;
18647;SDS011;9453;50.294;18.644;2022-08-04T14:36:13;3.08;;;2.78;;
18647;SDS011;9453;50.294;18.644;2022-08-04T14:38:51;5.65;;;3.40;;
18647;SDS011;9453;50.294;18.644;2022-08-04T14:41:20;4.13;;;2.83;;
18647;SDS011;9453;50.294;18.644;2022-08-04T14:43:49;5.03;;;3.35;;
18647;SDS011;9453;50.294;18.644;2022-08-04T14:46:20;3.28;;;2.90;;
18647;SDS011;9453;50.294;18.644;2022-08-04T14:49:01;5.32;;;3.00;;
18647;SDS011;9453;50.294;18.644;2022-08-04T14:51:37;4.20;;;3.10;;
18647;SDS011;9453;50.294;18.644;2022-08-04T14:54:06;3.63;;;2.80;;
18647;SDS011;9453;50.294;18.644;2022-08-04T14:56:34;4.72;;;2.90;;
18647;SDS011;9453;50.294;18.644;2022-08-04T14:59:03;7.97;;;3.20;;
18647;SDS011;9453;50.294;18.644;2022-08-04T15:01:34;4.93;;;2.70;;
18647;SDS011;9453;50.294;18.644;2022-08-04T15:04:03;3.08;;;2.60;;
18647;SDS011;9453;50.294;18.644;2022-08-04T15:06:31;3.83;;;2.83;;
18647;SDS011;9453;50.294;18.644;2022-08-04T15:09:00;3.00;;;2.70;;
18647;SDS011;9453;50.294;18.644;2022-08-04T15:11:31;2.95;;;2.58;;
18647;SDS011;9453;50.294;18.644;2022-08-04T15:13:58;3.47;;;2.72;;
18647;SDS011;9453;50.294;18.644;2022-08-04T15:16:28;3.22;;;2.92;;
18647;SDS011;9453;50.294;18.644;2022-08-04T15:18:57;3.33;;;2.72;;
18647;SDS011;9453;50.294;18.644;2022-08-04T15:21:26;3.53;;;2.78;;
18647;SDS011;9453;50.294;18.644;2022-08-04T15:23:54;3.97;;;2.60;;
18647;SDS011;9453;50.294;18.644;2022-08-04T15:26:22;5.55;;;2.70;;
18647;SDS011;9453;50.294;18.644;2022-08-04T15:28:55;3.15;;;2.58;;
18647;SDS011;9453;50.294;18.644;2022-08-04T15:31:27;3.72;;;2.78;;
18647;SDS011;9453;50.294;18.644;2022-08-04T15:34:00;4.53;;;2.70;;
18647;SDS011;9453;50.294;18.644;2022-08-04T15:36:30;3.63;;;2.70;;
18647;SDS011;9453;50.294;18.644;2022-08-04T15:41:30;5.00;;;2.70;;
18647;SDS011;9453;50.294;18.644;2022-08-04T15:47:12;3.50;;;2.50;;
18647;SDS011;9453;50.294;18.644;2022-08-04T15:49:42;2.60;;;2.40;;
18647;SDS011;9453;50.294;18.644;2022-08-04T15:52:11;2.75;;;2.47;;
18647;SDS011;9453;50.294;18.644;2022-08-04T15:54:40;2.45;;;2.25;;
18647;SDS011;9453;50.294;18.644;2022-08-04T15:57:07;2.72;;;2.47;;
18647;SDS011;9453;50.294;18.644;2022-08-04T16:05:31;5.65;;;2.53;;
18647;SDS011;9453;50.294;18.644;2022-08-04T16:08:07;3.80;;;2.55;;
18647;SDS011;9453;50.294;18.644;2022-08-04T16:10:42;5.60;;;2.50;;
18647;SDS011;9453;50.294;18.644;2022-08-04T16:13:16;3.30;;;2.42;;
18647;SDS011;9453;50.294;18.644;2022-08-04T16:15:46;3.30;;;2.95;;
18647;SDS011;9453;50.294;18.644;2022-08-04T16:18:35;3.25;;;2.95;;
18647;SDS011;9453;50.294;18.644;2022-08-04T16:21:05;2.70;;;2.50;;
18647;SDS011;9453;50.294;18.644;2022-08-04T16:23:53;5.25;;;3.00;;
18647;SDS011;9453;50.294;18.644;2022-08-04T16:26:48;3.05;;;2.75;;
18647;SDS011;9453;50.294;18.644;2022-08-04T16:29:23;3.08;;;2.53;;
18647;SDS011;9453;50.294;18.644;2022-08-04T16:32:18;4.50;;;2.88;;
18647;SDS011;9453;50.294;18.644;2022-08-04T16:34:47;4.82;;;2.97;;
18647;SDS011;9453;50.294;18.644;2022-08-04T16:37:19;3.63;;;2.60;;
18647;SDS011;9453;50.294;18.644;2022-08-04T16:39:46;3.67;;;2.85;;
18647;SDS011;9453;50.294;18.644;2022-08-04T16:42:33;3.72;;;2.92;;
18647;SDS011;9453;50.294;18.644;2022-08-04T16:45:01;4.10;;;3.08;;
18647;SDS011;9453;50.294;18.644;2022-08-04T16:50:32;3.30;;;3.00;;
18647;SDS011;9453;50.294;18.644;2022-08-04T16:53:00;2.88;;;2.60;;
18647;SDS011;9453;50.294;18.644;2022-08-04T16:55:37;3.55;;;3.03;;
18647;SDS011;9453;50.294;18.644;2022-08-04T16:58:04;6.13;;;2.90;;
18647;SDS011;9453;50.294;18.644;2022-08-04T17:00:32;7.18;;;3.20;;
18647;SDS011;9453;50.294;18.644;2022-08-04T17:03:00;3.65;;;3.10;;
18647;SDS011;9453;50.294;18.644;2022-08-04T17:05:28;3.90;;;2.90;;
18647;SDS011;9453;50.294;18.644;2022-08-04T17:07:55;2.67;;;2.47;;
18647;SDS011;9453;50.294;18.644;2022-08-04T17:10:31;3.70;;;2.92;;
18647;SDS011;9453;50.294;18.644;2022-08-04T17:13:18;3.13;;;2.80;;
18647;SDS011;9453;50.294;18.644;2022-08-04T17:15:47;3.08;;;2.78;;
18647;SDS011;9453;50.294;18.644;2022-08-04T17:18:16;2.95;;;2.63;;
18647;SDS011;9453;50.294;18.644;2022-08-04T17:20:44;4.13;;;2.85;;
18647;SDS011;9453;50.294;18.644;2022-08-04T17:23:27;3.05;;;2.75;;
18647;SDS011;9453;50.294;18.644;2022-08-04T17:25:58;3.33;;;2.65;;
18647;SDS011;9453;50.294;18.644;2022-08-04T17:28:27;3.28;;;2.97;;
18647;SDS011;9453;50.294;18.644;2022-08-04T17:30:55;3.28;;;2.95;;
18647;SDS011;9453;50.294;18.644;2022-08-04T17:33:24;4.22;;;3.17;;
18647;SDS011;9453;50.294;18.644;2022-08-04T17:35:52;4.10;;;3.03;;
18647;SDS011;9453;50.294;18.644;2022-08-04T17:38:21;4.80;;;3.30;;
18647;SDS011;9453;50.294;18.644;2022-08-04T17:40:49;3.42;;;3.13;;
18647;SDS011;9453;50.294;18.644;2022-08-04T17:43:34;3.33;;;2.92;;
18647;SDS011;9453;50.294;18.644;2022-08-04T17:46:18;3.35;;;2.97;;
18647;SDS011;9453;50.294;18.644;2022-08-04T17:48:53;4.45;;;3.20;;
18647;SDS011;9453;50.294;18.644;2022-08-04T17:51:30;4.07;;;3.20;;
18647;SDS011;9453;50.294;18.644;2022-08-04T17:53:59;2.95;;;2.63;;
18647;SDS011;9453;50.294;18.644;2022-08-04T17:56:27;4.05;;;3.20;;
18647;SDS011;9453;50.294;18.644;2022-08-04T18:01:55;5.93;;;3.53;;
18647;SDS011;9453;50.294;18.644;2022-08-04T18:07:03;3.85;;;3.40;;
18647;SDS011;9453;50.294;18.644;2022-08-04T18:09:33;5.80;;;3.17;;
18647;SDS011;9453;50.294;18.644;2022-08-04T18:12:02;4.75;;;3.35;;
18647;SDS011;9453;50.294;18.644;2022-08-04T18:14:38;5.30;;;3.10;;
18647;SDS011;9453;50.294;18.644;2022-08-04T18:17:07;6.20;;;3.88;;
18647;SDS011;9453;50.294;18.644;2022-08-04T18:19:35;4.35;;;3.40;;
18647;SDS011;9453;50.294;18.644;2022-08-04T18:22:02;5.35;;;3.65;;
18647;SDS011;9453;50.294;18.644;2022-08-04T18:24:31;5.07;;;3.75;;
18647;SDS011;9453;50.294;18.644;2022-08-04T18:26:58;4.43;;;3.40;;
18647;SDS011;9453;50.294;18.644;2022-08-04T18:29:26;7.90;;;3.90;;
18647;SDS011;9453;50.294;18.644;2022-08-04T18:31:54;4.88;;;3.40;;
18647;SDS011;9453;50.294;18.644;2022-08-04T18:34:21;4.28;;;3.40;;
18647;SDS011;9453;50.294;18.644;2022-08-04T18:36:48;4.05;;;3.45;;
18647;SDS011;9453;50.294;18.644;2022-08-04T18:39:15;4.47;;;3.45;;
18647;SDS011;9453;50.294;18.644;2022-08-04T18:41:42;4.70;;;3.17;;
18647;SDS011;9453;50.294;18.644;2022-08-04T18:44:09;7.07;;;3.63;;
18647;SDS011;9453;50.294;18.644;2022-08-04T18:46:36;4.68;;;3.25;;
18647;SDS011;9453;50.294;18.644;2022-08-04T18:49:05;4.90;;;3.35;;
18647;SDS011;9453;50.294;18.644;2022-08-04T18:51:32;4.50;;;3.28;;
18647;SDS011;9453;50.294;18.644;2022-08-04T18:53:58;4.75;;;3.30;;
18647;SDS011;9453;50.294;18.644;2022-08-04T18:56:26;4.32;;;3.30;;
18647;SDS011;9453;50.294;18.644;2022-08-04T18:58:53;4.25;;;3.50;;
18647;SDS011;9453;50.294;18.644;2022-08-04T19:01:20;5.93;;;3.67;;
18647;SDS011;9453;50.294;18.644;2022-08-04T19:03:47;6.47;;;3.72;;
18647;SDS011;9453;50.294;18.644;2022-08-04T19:06:15;4.97;;;3.85;;
18647;SDS011;9453;50.294;18.644;2022-08-04T19:08:42;5.22;;;3.72;;
18647;SDS011;9453;50.294;18.644;2022-08-04T19:11:09;4.68;;;3.33;;
18647;SDS011;9453;50.294;18.644;2022-08-04T19:13:37;3.92;;;3.30;;
18647;SDS011;9453;50.294;18.644;2022-08-04T19:16:04;9.40;;;3.88;;
18647;SDS011;9453;50.294;18.644;2022-08-04T19:18:33;10.80;;;3.53;;
18647;SDS011;9453;50.294;18.644;2022-08-04T19:21:00;4.72;;;3.58;;
18647;SDS011;9453;50.294;18.644;2022-08-04T19:23:28;5.22;;;3.53;;
18647;SDS011;9453;50.294;18.644;2022-08-04T19:25:56;6.55;;;3.17;;
18647;SDS011;9453;50.294;18.644;2022-08-04T19:28:24;5.72;;;3.45;;
18647;SDS011;9453;50.294;18.644;2022-08-04T19:30:51;4.15;;;3.20;;
18647;SDS011;9453;50.294;18.644;2022-08-04T19:33:18;5.63;;;2.97;;
18647;SDS011;9453;50.294;18.644;2022-08-04T19:35:46;4.85;;;3.08;;
18647;SDS011;9453;50.294;18.644;2022-08-04T19:38:13;6.05;;;3.03;;
18647;SDS011;9453;50.294;18.644;2022-08-04T19:40:42;4.40;;;2.83;;
18647;SDS011;9453;50.294;18.644;2022-08-04T19:43:10;7.32;;;2.97;;
18647;SDS011;9453;50.294;18.644;2022-08-04T19:45:38;5.40;;;2.63;;
18647;SDS011;9453;50.294;18.644;2022-08-04T19:48:05;6.38;;;3.25;;
18647;SDS011;9453;50.294;18.644;2022-08-04T19:50:32;3.33;;;2.90;;
18647;SDS011;9453;50.294;18.644;2022-08-04T19:52:59;3.97;;;2.70;;
18647;SDS011;9453;50.294;18.644;2022-08-04T19:55:26;4.78;;;2.80;;
18647;SDS011;9453;50.294;18.644;2022-08-04T19:57:54;4.80;;;3.15;;
18647;SDS011;9453;50.294;18.644;2022-08-04T20:00:21;4.35;;;2.92;;